Stations météo

réclame
Mon MeteoGroup
Ell, Pays-Bas (6377): Température de l'air & dewpoint: 12.01.2020 19:00:00 - 18.01.2020 19:00:00 (CET)Ell, Pays-Bas (6377): Température de l'air 5cm: 12.01.2020 19:00:00 - 18.01.2020 19:00:00 (CET)Ell, Pays-Bas (6377): Vitesse du vent & gusts: 12.01.2020 19:00:00 - 18.01.2020 19:00:00 (CET)Ell, Pays-Bas (6377): Direction du vent: 12.01.2020 19:00:00 - 18.01.2020 19:00:00 (CET)Ell, Pays-Bas (6377): visibility: 12.01.2020 19:00:00 - 18.01.2020 19:00:00 (CET)Ell, Pays-Bas (6377): Quantités de précipitations: 12.01.2020 19:00:00 - 18.01.2020 19:00:00 (CET)
Date & Time tt [°C] td [°C] tt 5cm [°C] ff [km/h] ff [knt] fx [km/h] fx [knt] dd vv [km] rr [mm]
18.01.2020 19:00:00 4,4 2,6 4,0 14 8 25 14 WNW 17 0,0
18.01.2020 18:00:00 4,2 1,3 4,0 14 8 29 16 W 20 0,0
18.01.2020 17:00:00 4,5 1,8 3,6 11 6 18 10 W 20 0,0
18.01.2020 16:00:00 5,8 2,1 5,5 18 10 32 18 W 22 0,0
18.01.2020 15:00:00 7,2 2,7 7,1 25 14 36 19 W 26 0,0
18.01.2020 14:00:00 6,6 2,9 6,1 22 12 32 18 WSW 10 0,0
18.01.2020 13:00:00 6,2 3,6 6,3 18 10 29 16 WSW 24 0,0
18.01.2020 12:00:00 5,6 3,7 5,7 14 8 32 18 SW 24 0,0
18.01.2020 11:00:00 5,3 3,4 5,1 18 10 32 18 SSW 27 0,0
18.01.2020 10:00:00 4,7 3,2 4,6 18 10 29 16 SW 29 0,0
18.01.2020 09:00:00 4,5 3,0 4,1 18 10 25 14 SW 39 0,0
18.01.2020 08:00:00 4,2 2,7 3,5 18 10 25 14 SSW 24 0,0
18.01.2020 07:00:00 4,3 2,7 3,7 18 10 32 18 SW 37 0,0
18.01.2020 06:00:00 4,0 2,4 3,2 18 10 29 16 SSW 40 0,0
18.01.2020 05:00:00 3,7 2,3 3,0 18 10 29 16 SSW 33 0,0
18.01.2020 04:00:00 3,6 2,0 2,5 14 8 25 14 SSW 41 0,0
18.01.2020 03:00:00 4,0 2,2 2,9 18 10 29 16 SSW 46 0,0
18.01.2020 02:00:00 4,2 2,7 3,4 18 10 29 16 SSW 36 0,0
18.01.2020 01:00:00 4,6 3,1 3,6 18 10 25 14 SSW 28 0,0
18.01.2020 00:00:00 4,3 3,1 3,1 14 8 22 12 SSW 24 0,0
17.01.2020 23:00:00 3,7 2,3 1,8 11 6 22 12 SSW 22 0,0
17.01.2020 22:00:00 6,2 3,0 5,1 18 10 25 14 WSW 27 0,0
17.01.2020 21:00:00 6,7 3,2 5,6 14 8 40 21 SW 26 0,0
17.01.2020 20:00:00 7,6 3,6 6,6 22 12 40 21 WSW 35 0,0
17.01.2020 19:00:00 7,3 5,5 5,5 14 8 25 14 SW 37 0,0
17.01.2020 18:00:00 8,9 6,5 8,1 18 10 43 23 SW 33 0,0
17.01.2020 17:00:00 9,0 8,1 8,4 14 8 25 14 SSW 16 0,0
17.01.2020 16:00:00 9,5 8,4 9,1 18 10 25 14 SSW 29 0,0
17.01.2020 15:00:00 9,5 8,4 9,2 18 10 29 16 SSW 32 0,0
17.01.2020 14:00:00 9,0 8,4 8,8 22 12 29 16 S 15 0,1
17.01.2020 13:00:00 8,7 8,1 8,6 18 10 36 19 S 15 0,1
17.01.2020 12:00:00 9,6 6,8 9,2 22 12 40 21 SSW 32 0,0
17.01.2020 11:00:00 9,9 6,2 9,5 14 8 25 14 S 41 0,0
17.01.2020 10:00:00 9,6 5,9 9,0 18 10 32 18 S 32 0,0
17.01.2020 09:00:00 9,6 5,6 8,7 22 12 32 18 S 31 0,0
17.01.2020 08:00:00 8,7 5,4 6,8 14 8 18 10 S 43 0,0
17.01.2020 07:00:00 7,0 4,8 5,1 11 6 14 8 SE 35 0,0
17.01.2020 06:00:00 7,1 4,8 5,7 11 6 18 10 ESE 38 0,0
17.01.2020 05:00:00 8,1 5,0 6,6 11 6 14 8 ESE 42 0,0
17.01.2020 04:00:00 7,3 4,5 5,3 11 6 14 8 ESE 44 0,0
17.01.2020 03:00:00 7,1 4,4 5,4 11 6 18 10 ESE 45 0,0
17.01.2020 02:00:00 8,5 5,0 6,7 14 8 25 14 SE 33 0,0
17.01.2020 01:00:00 8,7 5,3 7,4 18 10 29 16 SE 43 0,0
17.01.2020 00:00:00 7,7 5,4 5,9 18 10 22 12 ESE 33 0,0
16.01.2020 23:00:00 7,1 5,3 5,6 14 8 22 12 SE 38 0,0
16.01.2020 22:00:00 6,4 4,9 4,4 7 4 22 12 ESE 16 0,0
16.01.2020 21:00:00 7,5 5,6 6,3 14 8 25 14 ESE 28 0,0
16.01.2020 20:00:00 8,3 5,9 6,6 18 10 25 14 ESE 33 0,0
16.01.2020 19:00:00 8,7 5,9 7,0 14 8 22 12 ESE 36 0,0
16.01.2020 18:00:00 8,6 5,9 6,2 14 8 18 10 ESE 33 0,0
16.01.2020 17:00:00 9,1 5,5 5,6 7 4 14 8 SE 46 0,0
16.01.2020 16:00:00 9,9 6,4 8,8 14 8 25 14 SSE 45 0,0
16.01.2020 15:00:00 11,8 6,8 11,7 18 10 29 16 S 36 0,0
16.01.2020 14:00:00 11,5 7,2 11,6 22 12 32 18 S 36 0,0
16.01.2020 13:00:00 10,8 7,4 10,9 25 14 36 19 S 35 0,0
16.01.2020 12:00:00 9,2 7,3 9,6 11 6 14 8 SSE 24 0,0
16.01.2020 11:00:00 6,6 5,6 6,4 11 6 14 8 SE 17 0,0
16.01.2020 10:00:00 2,7 2,7 1,4 4 2 11 6 E 1,0 0,0
16.01.2020 09:00:00 0,9 0,9 -1,6 7 4 11 6 ESE 0,1 0,0
16.01.2020 08:00:00 1,7 1,6 -1,7 7 4 11 6 SE 0,7 0,0
16.01.2020 07:00:00 1,8 1,8 -1,1 4 2 7 4 SE 0,4 0,0
16.01.2020 06:00:00 1,4 1,4 -0,4 7 4 11 6 S 3,7 0,0
16.01.2020 05:00:00 2,4 2,4 0,1 7 4 11 6 S 9 0,0
16.01.2020 04:00:00 2,3 2,2 0,8 11 6 14 8 S 10 0,0
16.01.2020 03:00:00 2,8 2,7 1,7 11 6 14 8 S 19 0,0
16.01.2020 02:00:00 4,7 4,1 2,7 11 6 18 10 S 37 0,0
16.01.2020 01:00:00 5,9 4,9 4,4 14 8 18 10 SW 36 0,0
16.01.2020 00:00:00 5,5 4,7 3,8 11 6 14 8 SSW 45 0,0
15.01.2020 23:00:00 6,4 5,4 4,8 11 6 18 10 SW 30 0,0
15.01.2020 22:00:00 7,3 6,2 6,2 11 6 18 10 WSW 30 0,0
15.01.2020 21:00:00 7,8 6,6 7,0 14 8 25 14 WSW 39 0,0
15.01.2020 20:00:00 8,8 8,1 8,5 18 10 36 19 W 26 0,1
15.01.2020 19:00:00 10,3 8,7 9,8 22 12 43 23 WSW 41 0,0
15.01.2020 18:00:00 10,3 8,5 9,7 25 14 43 23 SSW 17 0,5
15.01.2020 17:00:00 10,9 7,3 10,1 25 14 54 29 SSW 18 0,0
15.01.2020 16:00:00 11,8 6,5 10,9 29 16 43 23 SSW 35 0,0
15.01.2020 15:00:00 12,1 6,1 11,4 32 18 54 29 SSW 32 0,0
15.01.2020 14:00:00 13,1 5,4 12,7 29 16 54 29 S 37 0,0
15.01.2020 13:00:00 12,6 5,4 12,1 32 18 54 29 S 33 0,0
15.01.2020 12:00:00 11,8 5,2 11,7 32 18 54 29 S 31 0,0
15.01.2020 11:00:00 10,8 4,8 10,0 29 16 43 23 S 38 0,0
15.01.2020 10:00:00 10,5 4,6 9,6 32 18 47 25 S 44 0,0
15.01.2020 09:00:00 10,2 4,7 9,5 32 18 47 25 S 47 0,0
15.01.2020 08:00:00 11,0 4,8 9,8 32 18 47 25 S 33 0,0
15.01.2020 07:00:00 11,0 5,2 9,9 29 16 43 23 S 47 0,0
15.01.2020 06:00:00 11,0 6,0 10,1 29 16 47 25 S 40 0,0
15.01.2020 05:00:00 11,1 6,6 10,2 32 18 54 29 S 47 0,0
15.01.2020 04:00:00 11,1 7,1 10,3 29 16 47 25 S 44 0,0
15.01.2020 03:00:00 11,0 7,3 10,2 25 14 50 27 S 44 0,0
15.01.2020 02:00:00 11,9 7,6 11,2 32 18 50 27 SSW 48 0,0
15.01.2020 01:00:00 12,0 7,3 11,4 32 18 61 33 SSW 45 0,0
15.01.2020 00:00:00 12,1 6,7 11,2 36 19 58 31 SSW 43 0,0
14.01.2020 23:00:00 12,3 6,5 11,6 36 19 65 35 SSW 34 0,0
14.01.2020 22:00:00 11,9 6,6 11,2 36 19 58 31 SSW 48 0,0
14.01.2020 21:00:00 11,2 6,7 10,7 40 21 61 33 SSW 37 0,0
14.01.2020 20:00:00 10,9 7,9 10,5 40 21 65 35 SSW 17 0,0
14.01.2020 19:00:00 11,4 8,0 11,0 36 19 58 31 SSW 43 0,0
14.01.2020 18:00:00 11,0 7,4 10,6 36 19 58 31 SSW 49 0,0
14.01.2020 17:00:00 10,7 6,6 10,2 36 19 54 29 S 48 0,0
14.01.2020 16:00:00 10,8 6,4 10,5 32 18 50 27 SSW 39 0,0
14.01.2020 15:00:00 11,0 6,7 10,7 36 19 54 29 S 44 0,0
14.01.2020 14:00:00 10,7 7,1 10,4 29 16 54 29 SSW 42 0,0
14.01.2020 13:00:00 10,2 7,4 9,9 25 14 54 29 S 36 0,0
14.01.2020 12:00:00 10,4 7,1 10,2 29 16 54 29 SSW 47 0,0
14.01.2020 11:00:00 10,5 7,1 10,2 36 19 61 33 SSW 46 0,0
14.01.2020 10:00:00 10,5 6,7 9,9 32 18 50 27 SSW 39 0,0
14.01.2020 09:00:00 10,4 6,9 9,6 32 18 50 27 SSW 38 0,0
14.01.2020 08:00:00 9,9 7,3 9,3 29 16 47 25 SSW 45 0,0
14.01.2020 07:00:00 9,1 7,9 8,7 32 18 47 25 S 14 0,3
14.01.2020 06:00:00 9,4 7,7 8,9 29 16 43 23 S 18 0,3
14.01.2020 05:00:00 9,7 7,8 9,2 29 16 47 25 S 15 0,3
14.01.2020 04:00:00 10,1 7,7 9,6 32 18 47 25 S 31 0,0
14.01.2020 03:00:00 10,5 7,5 10,0 29 16 47 25 S 49 0,0
14.01.2020 02:00:00 10,6 7,5 10,2 29 16 50 27 S 46 0,0
14.01.2020 01:00:00 10,8 7,5 10,0 32 18 43 23 SSW 44 0,0
14.01.2020 00:00:00 10,4 7,6 9,9 32 18 50 27 S 46 0,0
13.01.2020 23:00:00 10,0 7,5 9,2 32 18 43 23 S 46 0,0
13.01.2020 22:00:00 9,8 7,1 9,4 29 16 43 23 S 42 0,0
13.01.2020 21:00:00 9,3 6,8 8,7 29 16 43 23 S 41 0,0
13.01.2020 20:00:00 8,8 6,4 8,3 22 12 40 21 S 43 0,0
13.01.2020 19:00:00 8,4 5,9 7,9 22 12 29 16 S 41 0,0
13.01.2020 18:00:00 8,0 5,5 7,6 22 12 29 16 SSE 22 0,0
13.01.2020 17:00:00 8,0 5,1 7,4 18 10 29 16 SSE 34 0,0
13.01.2020 16:00:00 8,4 4,5 7,5 18 10 32 18 S 36 0,0
13.01.2020 15:00:00 9,4 4,6 9,4 18 10 32 18 SSW 34 0,0
13.01.2020 14:00:00 8,7 6,0 9,0 18 10 36 19 S 28 0,0
13.01.2020 13:00:00 8,1 6,8 7,9 18 10 29 16 S 42 0,0
13.01.2020 12:00:00 7,4 6,3 7,3 11 6 14 8 S 25 0,0
13.01.2020 11:00:00 5,2 4,8 4,9 4 2 18 10 SSE 17 0,0
13.01.2020 10:00:00 5,0 4,6 3,9 4 2 14 8 S 17 0,0
13.01.2020 09:00:00 4,7 4,3 3,4 11 6 22 12 S 17 0,0
13.01.2020 08:00:00 5,8 5,1 4,8 14 8 18 10 S 16 0,0
13.01.2020 07:00:00 6,0 5,4 5,4 14 8 18 10 S 15 0,0
13.01.2020 06:00:00 6,7 5,8 6,0 14 8 25 14 S 17 0,0
13.01.2020 05:00:00 6,7 5,7 6,0 14 8 25 14 SSW 15 0,0
13.01.2020 04:00:00 6,9 6,1 6,2 14 8 25 14 SSW 15 0,0
13.01.2020 03:00:00 7,1 6,2 6,6 14 8 25 14 SSW 15 0,0
13.01.2020 02:00:00 6,8 6,1 6,1 14 8 25 14 SW 18 0,0
13.01.2020 01:00:00 8,0 6,7 7,4 18 10 25 14 SW 17 0,0
13.01.2020 00:00:00 7,4 6,4 6,5 18 10 29 16 SSW 18 0,0
12.01.2020 23:00:00 7,7 6,7 6,9 14 8 29 16 SW 21 0,0
12.01.2020 22:00:00 8,2 6,8 7,5 22 12 32 18 SSW 22 0,0
12.01.2020 21:00:00 8,0 6,7 7,2 22 12 32 18 SSW 26 0,0
12.01.2020 20:00:00 8,3 7,0 7,5 22 12 32 18 SSW 27 0,0
12.01.2020 19:00:00 8,6 6,8 8,2 25 14 43 23 SSW 27 0,0

tt = Température de l'air
td = dewpoint
tt 5cm = Température de l'air 5cm
ff = Vitesse du vent
fx = gusts
dd = Direction du vent
vv = visibility
rr = Quantités de précipitations

stations d'obs. à proximité